Terminal Aerodrome Forecast
Issued by NWS Charleston, WV

Current Version | Previous Version | Text Only | Print | Product List | Glossary Off
Versions: 1 2 3 4 5 6 7 8 9 10 11 12 13 14 15 16 17 18 19 20 21 22 23 24 25

918
FTUS41 KRLX 142327
TAFHTS
TAF
KHTS 142327Z 1500/1524 16005KT 6SM -RA BR BKN050 OVC100
     FM150600 21008KT P6SM OVC008
     FM151100 22008G15KT P6SM OVC010 PROB30 1512/1513 P6SM -SHRA
      OVC007=

USA.gov is the U.S. government's official web portal to all federal, state and local government web resources and services.